Time;durP1;ratioP1;P1;durP2;ratioP2;P2;SDS_P1;SDS_P2;PMS_P1;PMS_P2;Temp;Humidity;BMP_temperature;BMP_pressure;BME280_temperature;BME280_humidity;BME280_pressure;Samples;Min_cycle;Max_cycle;Signal;HPM_P1;HPM_P2
2022/04/15 00:01:38;;;;;;;15.70;13.33;;;;;;;;;;5054183;28;20481;-73
2022/04/15 00:04:04;;;;;;;14.50;12.27;;;;;;;;;;5054081;28;20437;-74
2022/04/15 00:06:30;;;;;;;13.57;12.20;;;;;;;;;;5054156;28;20923;-73
2022/04/15 00:08:56;;;;;;;16.97;11.40;;;;;;;;;;5054039;28;20476;-74
2022/04/15 00:11:22;;;;;;;17.27;11.70;;;;;;;;;;5054010;28;20825;-72
2022/04/15 00:13:49;;;;;;;12.77;11.47;;;;;;;;;;5052756;28;20419;-74
2022/04/15 00:16:15;;;;;;;13.60;11.60;;;;;;;;;;5053912;28;20509;-73
2022/04/15 00:18:44;;;;;;;13.80;11.73;;;;;;;;;;5052675;28;20959;-74
2022/04/15 00:21:11;;;;;;;13.50;11.83;;;;;;;;;;5053860;28;20469;-72
2022/04/15 00:23:37;;;;;;;19.77;11.70;;;;;;;;;;5053813;28;20445;-71
2022/04/15 00:26:03;;;;;;;12.77;11.13;;;;;;;;;;5052527;28;20426;-72
2022/04/15 00:28:29;;;;;;;17.30;11.40;;;;;;;;;;5053954;28;20499;-72
2022/04/15 00:30:55;;;;;;;13.30;12.00;;;;;;;;;;5053708;28;20810;-71
2022/04/15 00:33:24;;;;;;;23.10;12.50;;;;;;;;;;5053800;28;20438;-72
2022/04/15 00:35:50;;;;;;;14.83;12.40;;;;;;;;;;5053672;28;20876;-72
2022/04/15 00:38:17;;;;;;;12.50;11.27;;;;;;;;;;5053635;28;20897;-72
2022/04/15 00:40:43;;;;;;;14.37;12.90;;;;;;;;;;5053328;28;20509;-72
2022/04/15 00:43:09;;;;;;;12.70;11.63;;;;;;;;;;5051955;28;20513;-72
2022/04/15 00:45:35;;;;;;;12.47;11.17;;;;;;;;;;5053218;28;20424;-73
2022/04/15 00:48:01;;;;;;;14.00;11.00;;;;;;;;;;5053503;28;20531;-71
2022/04/15 00:50:34;;;;;;;16.33;11.50;;;;;;;;;;5053442;28;20426;-72
2022/04/15 00:53:07;;;;;;;14.03;12.50;;;;;;;;;;5053421;28;20895;-72
2022/04/15 00:55:34;;;;;;;17.93;12.27;;;;;;;;;;5053425;28;20447;-73
2022/04/15 00:58:01;;;;;;;12.37;11.27;;;;;;;;;;5053444;28;20407;-73
2022/04/15 01:00:28;;;;;;;15.57;11.67;;;;;;;;;;5053241;28;20429;-73
2022/04/15 01:02:56;;;;;;;18.97;13.30;;;;;;;;;;5053309;28;20471;-73
2022/04/15 01:05:22;;;;;;;13.07;11.53;;;;;;;;;;5053237;28;20422;-73
2022/04/15 01:07:52;;;;;;;13.07;11.90;;;;;;;;;;5053284;28;20505;-73
2022/04/15 01:10:19;;;;;;;16.40;11.93;;;;;;;;;;5051906;28;20420;-73
2022/04/15 01:12:46;;;;;;;14.40;13.00;;;;;;;;;;5053304;28;20412;-72
2022/04/15 01:15:13;;;;;;;16.13;13.03;;;;;;;;;;5053175;28;20418;-73
2022/04/15 01:17:39;;;;;;;14.60;12.97;;;;;;;;;;5053199;28;20481;-72
2022/04/15 01:20:07;;;;;;;14.97;13.40;;;;;;;;;;5053113;28;20759;-72
2022/04/15 01:22:37;;;;;;;14.90;12.40;;;;;;;;;;5053133;28;21091;-71
2022/04/15 01:25:04;;;;;;;19.30;12.63;;;;;;;;;;5053222;28;20400;-71
2022/04/15 01:27:29;;;;;;;13.60;12.30;;;;;;;;;;5051858;28;20427;-71
2022/04/15 01:29:55;;;;;;;16.87;13.57;;;;;;;;;;5053183;28;20412;-71
2022/04/15 01:32:21;;;;;;;17.17;13.40;;;;;;;;;;5051885;28;20438;-71
2022/04/15 01:34:47;;;;;;;19.93;14.90;;;;;;;;;;5053099;28;20409;-72
2022/04/15 01:37:15;;;;;;;19.80;15.53;;;;;;;;;;5051775;28;20447;-71
2022/04/15 01:39:41;;;;;;;20.80;15.37;;;;;;;;;;5052810;28;20464;-72
2022/04/15 01:42:10;;;;;;;16.97;14.83;;;;;;;;;;5052918;28;20482;-73
2022/04/15 01:44:37;;;;;;;17.73;14.37;;;;;;;;;;5052886;28;20411;-71
2022/04/15 01:47:03;;;;;;;16.73;13.77;;;;;;;;;;5052891;28;20856;-70
2022/04/15 01:49:29;;;;;;;15.47;13.70;;;;;;;;;;5052855;28;20397;-71
2022/04/15 01:51:55;;;;;;;16.10;14.10;;;;;;;;;;5052830;28;20812;-71
2022/04/15 01:54:21;;;;;;;20.70;13.90;;;;;;;;;;5051644;28;20410;-71
2022/04/15 01:56:46;;;;;;;14.80;12.93;;;;;;;;;;5056537;28;20431;-71
2022/04/15 01:59:12;;;;;;;13.97;12.67;;;;;;;;;;5055197;28;20591;-71
2022/04/15 02:01:38;;;;;;;14.93;13.40;;;;;;;;;;5056369;28;20472;-71
2022/04/15 02:04:04;;;;;;;18.37;14.93;;;;;;;;;;5056466;28;20401;-71
2022/04/15 02:06:30;;;;;;;14.87;13.27;;;;;;;;;;5056403;28;20919;-72
2022/04/15 02:08:56;;;;;;;14.43;12.90;;;;;;;;;;5056392;28;20449;-72
2022/04/15 02:11:22;;;;;;;15.20;13.00;;;;;;;;;;5056252;28;20458;-71
2022/04/15 02:13:48;;;;;;;19.30;13.57;;;;;;;;;;5056341;28;20883;-71
2022/04/15 02:16:14;;;;;;;14.30;12.90;;;;;;;;;;5056149;28;20416;-71
2022/04/15 02:18:40;;;;;;;15.17;13.80;;;;;;;;;;5056262;28;20468;-71
2022/04/15 02:21:06;;;;;;;16.77;13.37;;;;;;;;;;5054787;28;20458;-71
2022/04/15 02:23:32;;;;;;;16.60;13.67;;;;;;;;;;5056165;28;20450;-71
2022/04/15 02:25:58;;;;;;;22.13;15.33;;;;;;;;;;5056078;28;20807;-73
2022/04/15 02:28:24;;;;;;;17.77;14.47;;;;;;;;;;5055999;28;20426;-73
2022/04/15 02:30:50;;;;;;;29.37;15.13;;;;;;;;;;5054647;28;20489;-71
2022/04/15 02:33:16;;;;;;;16.20;14.60;;;;;;;;;;5054642;28;20459;-70
2022/04/15 02:35:42;;;;;;;18.83;14.17;;;;;;;;;;5055863;28;20403;-72
2022/04/15 02:38:08;;;;;;;19.50;14.20;;;;;;;;;;5055759;28;20890;-71
2022/04/15 02:40:34;;;;;;;18.33;14.37;;;;;;;;;;5055652;28;20465;-71
2022/04/15 02:43:01;;;;;;;17.63;14.30;;;;;;;;;;5054412;28;20479;-72
2022/04/15 02:45:28;;;;;;;23.83;13.93;;;;;;;;;;5055682;28;20472;-71
2022/04/15 02:47:54;;;;;;;15.40;13.90;;;;;;;;;;5055615;28;20879;-71
2022/04/15 02:50:20;;;;;;;16.20;14.50;;;;;;;;;;5055635;28;20409;-71
2022/04/15 02:52:46;;;;;;;23.07;14.60;;;;;;;;;;5055560;28;20412;-71
2022/04/15 02:55:13;;;;;;;16.17;14.57;;;;;;;;;;5055503;28;20412;-71
2022/04/15 02:57:39;;;;;;;19.30;14.87;;;;;;;;;;5055575;28;20404;-70
2022/04/15 03:00:05;;;;;;;19.07;15.33;;;;;;;;;;5055487;28;20406;-71
2022/04/15 03:02:32;;;;;;;20.30;15.60;;;;;;;;;;5055371;28;20467;-70
2022/04/15 03:04:58;;;;;;;20.37;15.50;;;;;;;;;;5055570;28;20420;-71
2022/04/15 03:07:24;;;;;;;19.37;16.00;;;;;;;;;;5054715;28;20413;-71
2022/04/15 03:09:50;;;;;;;20.00;16.13;;;;;;;;;;5055358;28;20407;-72
2022/04/15 03:12:16;;;;;;;18.20;16.30;;;;;;;;;;5055204;28;20420;-73
2022/04/15 03:14:42;;;;;;;23.07;15.77;;;;;;;;;;5055120;28;20408;-71
2022/04/15 03:17:08;;;;;;;23.70;16.27;;;;;;;;;;5055192;28;20777;-70
2022/04/15 03:19:34;;;;;;;19.93;15.77;;;;;;;;;;5055083;28;20400;-72
2022/04/15 03:22:00;;;;;;;23.20;16.53;;;;;;;;;;5054988;28;20948;-71
2022/04/15 03:24:26;;;;;;;17.57;15.77;;;;;;;;;;5054972;28;20401;-70
2022/04/15 03:26:52;;;;;;;20.13;16.70;;;;;;;;;;5054953;28;20423;-70
2022/04/15 03:29:18;;;;;;;19.40;15.97;;;;;;;;;;5054928;28;20411;-71
2022/04/15 03:31:44;;;;;;;19.80;16.70;;;;;;;;;;5054794;28;20424;-71
2022/04/15 03:34:10;;;;;;;21.30;15.90;;;;;;;;;;5054787;28;20412;-71
2022/04/15 03:36:36;;;;;;;18.77;16.67;;;;;;;;;;5054682;28;20505;-71
2022/04/15 03:39:02;;;;;;;18.70;16.67;;;;;;;;;;5053251;28;20429;-71
2022/04/15 03:41:28;;;;;;;21.60;17.07;;;;;;;;;;5054535;28;20460;-71
2022/04/15 03:43:54;;;;;;;18.30;14.83;;;;;;;;;;5053340;28;20435;-72
2022/04/15 03:46:20;;;;;;;20.10;15.93;;;;;;;;;;5054585;28;20422;-71
2022/04/15 03:48:46;;;;;;;17.60;15.80;;;;;;;;;;5054457;28;20424;-70
2022/04/15 03:51:13;;;;;;;17.63;15.90;;;;;;;;;;5054523;28;20416;-70
2022/04/15 03:53:38;;;;;;;20.40;15.87;;;;;;;;;;5054383;28;20419;-71
2022/04/15 03:56:07;;;;;;;21.40;16.53;;;;;;;;;;5054351;28;20750;-73
2022/04/15 03:58:33;;;;;;;20.20;16.07;;;;;;;;;;5054314;28;20439;-72
2022/04/15 04:00:59;;;;;;;19.73;15.80;;;;;;;;;;5052876;28;20447;-71
2022/04/15 04:03:26;;;;;;;19.37;17.27;;;;;;;;;;5054498;28;20473;-73
2022/04/15 04:05:52;;;;;;;22.20;16.23;;;;;;;;;;5054211;28;20413;-73
2022/04/15 04:08:18;;;;;;;20.90;16.90;;;;;;;;;;5054120;28;20416;-71
2022/04/15 04:10:43;;;;;;;18.73;16.73;;;;;;;;;;5054037;28;20404;-71
2022/04/15 04:13:09;;;;;;;23.83;17.70;;;;;;;;;;5054055;28;20413;-70
2022/04/15 04:15:35;;;;;;;21.00;18.60;;;;;;;;;;5054011;28;20416;-71
2022/04/15 04:18:02;;;;;;;21.13;16.03;;;;;;;;;;5052323;28;20752;-70
2022/04/15 04:20:28;;;;;;;19.90;17.00;;;;;;;;;;5053527;28;20440;-71
2022/04/15 04:22:55;;;;;;;23.03;18.67;;;;;;;;;;5053871;28;20558;-71
2022/04/15 04:25:21;;;;;;;20.27;16.97;;;;;;;;;;5054679;28;20450;-73
2022/04/15 04:27:47;;;;;;;19.10;16.53;;;;;;;;;;5054103;28;20500;-73
2022/04/15 04:30:14;;;;;;;19.60;17.00;;;;;;;;;;5053982;28;20410;-73
2022/04/15 04:32:40;;;;;;;19.43;17.37;;;;;;;;;;5054149;28;20407;-73
2022/04/15 04:35:06;;;;;;;24.10;18.27;;;;;;;;;;5054133;28;20441;-73
2022/04/15 04:37:33;;;;;;;25.73;18.93;;;;;;;;;;5053677;28;20407;-73
2022/04/15 04:39:59;;;;;;;22.47;18.57;;;;;;;;;;5053440;28;20463;-73
2022/04/15 04:42:30;;;;;;;23.53;19.00;;;;;;;;;;5053489;28;20475;-72
2022/04/15 04:44:57;;;;;;;24.87;18.13;;;;;;;;;;5053482;28;20431;-73
2022/04/15 04:47:23;;;;;;;21.83;17.80;;;;;;;;;;5053544;28;20901;-73
2022/04/15 04:49:49;;;;;;;22.53;18.43;;;;;;;;;;5053483;28;20404;-73
2022/04/15 04:52:15;;;;;;;23.73;17.80;;;;;;;;;;5053731;28;20431;-74
2022/04/15 04:54:41;;;;;;;22.20;18.80;;;;;;;;;;5053441;28;20887;-73
2022/04/15 04:57:07;;;;;;;20.47;18.27;;;;;;;;;;5053422;28;20461;-74
2022/04/15 04:59:33;;;;;;;21.83;18.50;;;;;;;;;;5052044;28;20826;-73
2022/04/15 05:02:00;;;;;;;22.00;18.23;;;;;;;;;;5053461;28;20481;-73
2022/04/15 05:04:26;;;;;;;27.60;19.50;;;;;;;;;;5053366;28;20444;-73
2022/04/15 05:06:52;;;;;;;23.40;18.93;;;;;;;;;;5053661;28;20986;-74
2022/04/15 05:09:18;;;;;;;25.43;18.13;;;;;;;;;;5053378;28;20498;-73
2022/04/15 05:11:44;;;;;;;19.93;17.90;;;;;;;;;;5053272;28;20503;-73
2022/04/15 05:14:10;;;;;;;24.20;18.00;;;;;;;;;;5053282;28;20436;-73
2022/04/15 05:16:36;;;;;;;23.30;17.87;;;;;;;;;;5051886;28;20435;-73
2022/04/15 05:19:05;;;;;;;25.30;18.90;;;;;;;;;;5051932;28;20501;-73
2022/04/15 05:21:31;;;;;;;25.10;18.80;;;;;;;;;;5053086;28;20519;-73
2022/04/15 05:23:57;;;;;;;24.40;19.17;;;;;;;;;;5053110;28;20424;-73
2022/04/15 05:26:23;;;;;;;20.10;17.70;;;;;;;;;;5053118;28;20401;-72
2022/04/15 05:28:49;;;;;;;24.13;18.67;;;;;;;;;;5053096;28;20447;-73
2022/04/15 05:31:15;;;;;;;25.20;19.50;;;;;;;;;;5054726;28;20548;-73
2022/04/15 05:33:41;;;;;;;34.27;27.27;;;;;;;;;;5057036;28;20416;-76
2022/04/15 05:36:07;;;;;;;26.87;23.73;;;;;;;;;;5057083;28;20523;-77
2022/04/15 05:38:33;;;;;;;28.27;19.60;;;;;;;;;;5056934;28;20417;-77
2022/04/15 05:40:59;;;;;;;22.17;17.47;;;;;;;;;;5056792;28;20597;-75
2022/04/15 05:43:25;;;;;;;21.10;17.33;;;;;;;;;;5056842;28;20430;-71
2022/04/15 05:45:51;;;;;;;23.33;18.63;;;;;;;;;;5056763;28;20419;-72
2022/04/15 05:48:17;;;;;;;19.90;17.80;;;;;;;;;;5056884;28;20423;-72
2022/04/15 05:50:43;;;;;;;28.53;17.57;;;;;;;;;;5056683;28;20419;-72
2022/04/15 05:53:11;;;;;;;19.00;16.57;;;;;;;;;;5056647;28;20506;-71
2022/04/15 05:55:40;;;;;;;19.63;16.20;;;;;;;;;;5056899;28;20796;-71
2022/04/15 05:58:07;;;;;;;22.03;18.37;;;;;;;;;;5056567;28;20420;-71
2022/04/15 06:00:33;;;;;;;26.63;17.67;;;;;;;;;;5056515;28;20899;-72
2022/04/15 06:02:59;;;;;;;18.87;16.43;;;;;;;;;;5056376;28;20467;-71
2022/04/15 06:05:27;;;;;;;24.00;19.00;;;;;;;;;;5056475;28;20414;-77
2022/04/15 06:07:53;;;;;;;24.47;18.10;;;;;;;;;;5056459;28;20419;-77
2022/04/15 06:10:19;;;;;;;24.83;17.80;;;;;;;;;;5056351;28;20411;-76
2022/04/15 06:13:06;;;;;;;18.97;16.57;;;;;;;;;;5056237;28;20408;-75
2022/04/15 06:15:32;;;;;;;20.37;17.80;;;;;;;;;;5056176;28;21018;-75
2022/04/15 06:17:59;;;;;;;23.50;16.10;;;;;;;;;;5056160;28;20396;-77
2022/04/15 06:20:25;;;;;;;19.33;15.80;;;;;;;;;;5056030;28;20412;-78
2022/04/15 06:22:51;;;;;;;19.70;15.87;;;;;;;;;;5056004;28;20610;-74
2022/04/15 06:25:17;;;;;;;27.47;17.27;;;;;;;;;;5056074;28;20405;-74
2022/04/15 06:27:43;;;;;;;19.20;16.60;;;;;;;;;;5056073;28;20475;-74
2022/04/15 06:30:09;;;;;;;18.10;15.90;;;;;;;;;;5055989;28;20405;-74
2022/04/15 06:32:36;;;;;;;18.10;16.20;;;;;;;;;;5055962;28;20419;-74
2022/04/15 06:35:02;;;;;;;18.13;16.20;;;;;;;;;;5055977;28;20907;-74
2022/04/15 06:37:30;;;;;;;22.90;17.50;;;;;;;;;;5055826;28;20507;-75
2022/04/15 06:39:56;;;;;;;31.00;26.47;;;;;;;;;;5055671;28;20463;-75
2022/04/15 06:42:22;;;;;;;21.20;16.70;;;;;;;;;;5054703;28;20473;-73
2022/04/15 06:44:48;;;;;;;34.10;24.77;;;;;;;;;;5055679;28;20834;-73
2022/04/15 06:47:14;;;;;;;23.10;17.13;;;;;;;;;;5055699;28;20431;-74
2022/04/15 06:49:40;;;;;;;19.20;16.90;;;;;;;;;;5055637;28;20763;-72
2022/04/15 06:52:07;;;;;;;21.70;18.00;;;;;;;;;;5055597;28;20406;-73
2022/04/15 06:54:33;;;;;;;19.57;16.17;;;;;;;;;;5055480;28;20402;-71
2022/04/15 06:56:59;;;;;;;17.43;15.43;;;;;;;;;;5055693;28;20408;-72
2022/04/15 06:59:25;;;;;;;19.20;15.83;;;;;;;;;;5055496;28;20394;-72
2022/04/15 07:01:51;;;;;;;17.30;15.47;;;;;;;;;;5055341;28;20511;-72
2022/04/15 07:04:17;;;;;;;17.60;15.37;;;;;;;;;;5055422;28;20405;-72
2022/04/15 07:06:43;;;;;;;16.30;14.73;;;;;;;;;;5055344;28;20517;-72
2022/04/15 07:09:09;;;;;;;15.47;13.93;;;;;;;;;;5055304;28;20407;-72
2022/04/15 07:11:35;;;;;;;17.00;14.97;;;;;;;;;;5055275;28;20414;-72
2022/04/15 07:14:03;;;;;;;16.60;14.30;;;;;;;;;;5053878;28;20501;-72
2022/04/15 07:16:29;;;;;;;15.20;13.73;;;;;;;;;;5055254;28;20426;-72
2022/04/15 07:18:56;;;;;;;16.40;14.70;;;;;;;;;;5055081;28;20411;-72
2022/04/15 07:21:22;;;;;;;15.90;14.10;;;;;;;;;;5054966;28;20453;-72
2022/04/15 07:23:49;;;;;;;17.00;14.73;;;;;;;;;;5054965;28;20475;-72
2022/04/15 07:26:15;;;;;;;16.40;13.87;;;;;;;;;;5054988;28;20390;-72
2022/04/15 07:28:41;;;;;;;18.63;15.00;;;;;;;;;;5053576;28;20418;-72
2022/04/15 07:31:07;;;;;;;18.10;15.67;;;;;;;;;;5054775;28;20953;-71
2022/04/15 07:33:33;;;;;;;16.07;14.37;;;;;;;;;;5053353;28;20454;-72
2022/04/15 07:35:58;;;;;;;18.17;15.57;;;;;;;;;;5054727;28;20410;-72
2022/04/15 07:38:24;;;;;;;15.53;13.80;;;;;;;;;;5054698;28;20414;-72
2022/04/15 07:40:50;;;;;;;19.97;14.60;;;;;;;;;;5054523;28;20833;-72
2022/04/15 07:43:16;;;;;;;15.50;14.00;;;;;;;;;;5054565;28;20493;-73
2022/04/15 07:45:42;;;;;;;15.10;13.70;;;;;;;;;;5054601;28;20657;-73
2022/04/15 07:48:10;;;;;;;16.93;15.20;;;;;;;;;;5053261;28;20496;-72
2022/04/15 07:50:36;;;;;;;17.37;15.07;;;;;;;;;;5054756;28;20806;-72
2022/04/15 07:53:02;;;;;;;15.50;14.03;;;;;;;;;;5052975;28;20519;-72
2022/04/15 07:55:29;;;;;;;33.37;28.70;;;;;;;;;;5054370;28;20408;-72
2022/04/15 07:57:55;;;;;;;17.00;15.30;;;;;;;;;;5054456;28;20420;-72
2022/04/15 08:00:21;;;;;;;16.50;14.10;;;;;;;;;;5054225;28;20407;-72
2022/04/15 08:02:47;;;;;;;16.20;14.60;;;;;;;;;;5054148;28;20561;-72
2022/04/15 08:05:13;;;;;;;14.20;12.90;;;;;;;;;;5054086;28;20497;-72
2022/04/15 08:07:39;;;;;;;14.13;12.73;;;;;;;;;;5054386;28;20416;-72
2022/04/15 08:10:07;;;;;;;15.00;13.40;;;;;;;;;;5054336;28;20411;-72
2022/04/15 08:12:33;;;;;;;13.10;11.93;;;;;;;;;;5054054;28;20883;-72
2022/04/15 08:15:00;;;;;;;14.73;13.43;;;;;;;;;;5054172;28;20407;-72
2022/04/15 08:17:26;;;;;;;17.13;14.57;;;;;;;;;;5054084;28;20421;-72
2022/04/15 08:19:52;;;;;;;14.77;13.40;;;;;;;;;;5054266;28;20415;-72
2022/04/15 08:22:17;;;;;;;13.60;12.20;;;;;;;;;;5053947;28;20473;-72
2022/04/15 08:24:45;;;;;;;15.47;13.97;;;;;;;;;;5053944;28;20405;-72
2022/04/15 08:27:11;;;;;;;12.97;11.83;;;;;;;;;;5054257;28;20759;-72
2022/04/15 08:29:39;;;;;;;14.80;12.63;;;;;;;;;;5053832;28;20816;-73
2022/04/15 08:32:08;;;;;;;13.57;12.20;;;;;;;;;;5053980;28;20424;-72
2022/04/15 08:34:37;;;;;;;14.57;11.90;;;;;;;;;;5053615;28;20768;-72
2022/04/15 08:37:04;;;;;;;13.23;11.33;;;;;;;;;;5053674;28;20416;-73
2022/04/15 08:39:30;;;;;;;18.73;12.10;;;;;;;;;;5053518;28;20464;-73
2022/04/15 08:41:57;;;;;;;14.67;13.17;;;;;;;;;;5053591;28;20465;-72
2022/04/15 08:44:24;;;;;;;13.13;11.97;;;;;;;;;;5053629;28;20552;-73
2022/04/15 08:46:50;;;;;;;13.80;12.40;;;;;;;;;;5052166;28;20520;-73
2022/04/15 08:49:19;;;;;;;17.37;13.27;;;;;;;;;;5052180;28;20904;-73
2022/04/15 08:51:46;;;;;;;12.90;11.80;;;;;;;;;;5053484;28;20411;-72
2022/04/15 08:54:13;;;;;;;12.47;11.40;;;;;;;;;;5052157;28;20430;-72
2022/04/15 08:56:39;;;;;;;14.50;11.00;;;;;;;;;;5052148;28;20434;-72
2022/04/15 08:59:05;;;;;;;15.80;10.93;;;;;;;;;;5053538;28;20789;-73
2022/04/15 09:01:32;;;;;;;10.97;9.93;;;;;;;;;;5053121;28;20561;-72
2022/04/15 09:03:58;;;;;;;13.90;10.20;;;;;;;;;;5053208;28;20414;-73
2022/04/15 09:06:29;;;;;;;9.70;8.87;;;;;;;;;;5052907;28;20564;-73
2022/04/15 09:09:02;;;;;;;10.67;9.87;;;;;;;;;;5053107;28;20464;-73
2022/04/15 09:11:32;;;;;;;11.70;9.03;;;;;;;;;;5053171;28;20393;-73
2022/04/15 09:13:58;;;;;;;9.97;8.97;;;;;;;;;;5053214;28;20409;-73
2022/04/15 09:16:25;;;;;;;9.20;8.60;;;;;;;;;;5053093;28;20440;-72
2022/04/15 09:18:51;;;;;;;11.10;9.90;;;;;;;;;;5053204;28;20408;-73
2022/04/15 09:21:25;;;;;;;10.10;9.40;;;;;;;;;;5053012;28;20486;-73
2022/04/15 09:23:52;;;;;;;10.83;9.93;;;;;;;;;;5053400;28;20407;-73
2022/04/15 09:26:19;;;;;;;11.30;9.50;;;;;;;;;;5053079;28;20410;-73
2022/04/15 09:28:46;;;;;;;9.93;9.13;;;;;;;;;;5053105;28;20915;-74
2022/04/15 09:31:13;;;;;;;10.17;9.17;;;;;;;;;;5053089;28;20412;-73
2022/04/15 09:33:50;;;;;;;10.00;9.07;;;;;;;;;;5051719;28;20437;-73
2022/04/15 09:36:35;;;;;;;9.90;9.27;;;;;;;;;;5051699;28;20416;-74
2022/04/15 09:39:19;;;;;;;10.30;9.20;;;;;;;;;;5052845;28;20415;-73
2022/04/15 09:41:54;;;;;;;12.07;8.23;;;;;;;;;;5052787;28;20509;-74
2022/04/15 09:44:21;;;;;;;10.00;9.03;;;;;;;;;;5053219;28;20447;-73
2022/04/15 09:46:47;;;;;;;11.90;10.67;;;;;;;;;;5053041;28;20425;-72
2022/04/15 09:49:14;;;;;;;9.17;8.47;;;;;;;;;;5053006;28;20420;-73
2022/04/15 09:51:52;;;;;;;10.60;9.60;;;;;;;;;;5052906;28;20495;-71
2022/04/15 09:54:19;;;;;;;9.37;8.40;;;;;;;;;;5052899;28;20417;-74
2022/04/15 09:56:45;;;;;;;10.13;9.10;;;;;;;;;;5052874;28;20432;-72
2022/04/15 09:59:15;;;;;;;14.20;9.97;;;;;;;;;;5052834;28;20396;-73
2022/04/15 10:01:42;;;;;;;9.57;8.60;;;;;;;;;;5052691;28;20463;-72
2022/04/15 10:04:10;;;;;;;11.20;10.33;;;;;;;;;;5052707;28;20469;-70
2022/04/15 10:06:36;;;;;;;9.90;9.10;;;;;;;;;;5051328;28;20478;-70
2022/04/15 10:09:02;;;;;;;11.37;8.53;;;;;;;;;;5052960;28;20498;-74
2022/04/15 10:11:31;;;;;;;10.40;9.60;;;;;;;;;;5052688;28;20442;-76
2022/04/15 10:13:57;;;;;;;9.63;8.83;;;;;;;;;;5052637;28;20406;-75
2022/04/15 10:16:23;;;;;;;10.97;9.70;;;;;;;;;;5052629;28;20480;-73
2022/04/15 10:18:51;;;;;;;13.23;10.73;;;;;;;;;;5056153;28;20413;-74
2022/04/15 10:21:17;;;;;;;11.00;9.90;;;;;;;;;;5056068;28;20413;-74
2022/04/15 10:23:43;;;;;;;9.90;9.07;;;;;;;;;;5056054;28;20433;-73
2022/04/15 10:26:09;;;;;;;10.30;9.60;;;;;;;;;;5056052;28;20458;-73
2022/04/15 10:28:43;;;;;;;12.70;10.70;;;;;;;;;;5056039;28;20536;-72
2022/04/15 10:31:13;;;;;;;11.07;10.13;;;;;;;;;;5055876;28;20422;-73
2022/04/15 10:33:39;;;;;;;10.63;9.83;;;;;;;;;;5055890;28;20422;-73
2022/04/15 10:36:20;;;;;;;9.87;9.20;;;;;;;;;;5055858;28;20933;-73
2022/04/15 10:39:11;;;;;;;11.23;10.13;;;;;;;;;;5055814;28;20453;-71
2022/04/15 10:41:43;;;;;;;9.97;9.20;;;;;;;;;;5050576;28;20565;-71
2022/04/15 10:44:12;;;;;;;12.40;10.30;;;;;;;;;;5054438;28;20427;-72
2022/04/15 10:46:38;;;;;;;10.90;10.10;;;;;;;;;;5055632;28;20462;-74
2022/04/15 10:49:19;;;;;;;10.90;9.97;;;;;;;;;;5055578;28;20906;-73
2022/04/15 10:51:45;;;;;;;8.30;7.70;;;;;;;;;;5055508;28;20440;-74
2022/04/15 10:54:31;;;;;;;8.73;8.10;;;;;;;;;;5055544;28;20403;-73
2022/04/15 10:57:02;;;;;;;9.27;8.57;;;;;;;;;;5055336;28;20408;-74
2022/04/15 11:02:16;;;;;;;9.60;8.90;;;;;;;;;;5055381;28;20564;-73
2022/04/15 11:04:47;;;;;;;10.03;9.27;;;;;;;;;;5054113;28;20448;-73
2022/04/15 11:07:17;;;;;;;10.43;9.60;;;;;;;;;;5055261;28;20466;-74
2022/04/15 11:09:43;;;;;;;9.50;8.90;;;;;;;;;;5055457;28;20420;-73
2022/04/15 11:12:11;;;;;;;10.70;9.87;;;;;;;;;;5055147;28;20919;-74
2022/04/15 11:14:38;;;;;;;10.80;9.70;;;;;;;;;;5055105;28;20818;-73
2022/04/15 11:17:09;;;;;;;13.10;12.00;;;;;;;;;;5053751;28;20436;-73
2022/04/15 11:19:36;;;;;;;15.03;11.37;;;;;;;;;;5055371;28;20721;-72
2022/04/15 11:22:02;;;;;;;10.90;10.00;;;;;;;;;;5054928;28;20832;-72
2022/04/15 11:24:34;;;;;;;9.53;8.70;;;;;;;;;;5054899;28;20399;-73
2022/04/15 11:27:03;;;;;;;9.00;8.20;;;;;;;;;;5053511;28;20801;-75
2022/04/15 11:29:38;;;;;;;9.00;8.20;;;;;;;;;;5054403;28;20397;-73
2022/04/15 11:32:05;;;;;;;9.37;8.27;;;;;;;;;;5053536;28;20430;-73
2022/04/15 11:34:32;;;;;;;9.97;9.20;;;;;;;;;;5054727;28;20402;-73
2022/04/15 11:37:01;;;;;;;9.43;8.60;;;;;;;;;;5054723;28;20445;-73
2022/04/15 11:39:27;;;;;;;9.57;8.67;;;;;;;;;;5054487;28;20454;-72
2022/04/15 11:41:59;;;;;;;9.40;8.60;;;;;;;;;;5054449;28;20478;-73
2022/04/15 11:44:30;;;;;;;7.73;7.30;;;;;;;;;;5054559;28;20406;-73
2022/04/15 11:47:15;;;;;;;8.50;7.80;;;;;;;;;;5054286;28;20422;-73
2022/04/15 11:49:42;;;;;;;9.03;8.23;;;;;;;;;;5054631;28;20444;-71
2022/04/15 11:52:08;;;;;;;7.40;6.90;;;;;;;;;;5054400;28;20794;-73
2022/04/15 11:54:35;;;;;;;8.40;7.80;;;;;;;;;;5054259;28;20403;-72
2022/04/15 11:57:03;;;;;;;9.70;8.90;;;;;;;;;;5054289;28;20419;-70
2022/04/15 11:59:29;;;;;;;6.73;6.17;;;;;;;;;;5054293;28;20803;-71
2022/04/15 12:01:56;;;;;;;6.90;6.47;;;;;;;;;;5054051;28;20908;-71
2022/04/15 12:04:22;;;;;;;7.03;6.63;;;;;;;;;;5054417;28;20558;-72
2022/04/15 12:06:48;;;;;;;6.93;6.53;;;;;;;;;;5053942;28;20416;-71
2022/04/15 12:09:16;;;;;;;6.73;6.40;;;;;;;;;;5054045;28;20516;-72
2022/04/15 12:11:42;;;;;;;7.00;6.70;;;;;;;;;;5053846;28;20762;-72
2022/04/15 12:14:09;;;;;;;6.97;6.50;;;;;;;;;;5053978;28;20958;-72
2022/04/15 12:16:39;;;;;;;6.23;5.93;;;;;;;;;;5052699;28;20444;-73
2022/04/15 12:19:05;;;;;;;5.77;5.37;;;;;;;;;;5053856;28;20502;-73
2022/04/15 12:21:32;;;;;;;6.97;6.37;;;;;;;;;;5052596;28;20886;-74
2022/04/15 12:23:59;;;;;;;6.90;6.30;;;;;;;;;;5052775;28;20453;-77
2022/04/15 12:26:25;;;;;;;10.63;5.97;;;;;;;;;;5054082;28;20182;-72
2022/04/15 12:31:35;;;;;;;6.40;5.90;;;;;;;;;;5053774;28;20406;-73
2022/04/15 12:34:02;;;;;;;5.93;5.53;;;;;;;;;;5054032;28;20411;-73
2022/04/15 12:36:41;;;;;;;5.43;5.13;;;;;;;;;;5053788;28;20419;-74
2022/04/15 12:39:07;;;;;;;4.97;4.73;;;;;;;;;;5053065;28;20768;-72
2022/04/15 12:41:44;;;;;;;4.83;4.40;;;;;;;;;;5053273;28;20459;-72
2022/04/15 12:44:15;;;;;;;5.33;4.80;;;;;;;;;;5053682;28;20893;-73
2022/04/15 12:46:43;;;;;;;5.00;4.63;;;;;;;;;;5053480;28;20418;-73
2022/04/15 12:49:29;;;;;;;5.17;4.97;;;;;;;;;;5053550;28;20467;-74
2022/04/15 12:52:06;;;;;;;5.33;4.87;;;;;;;;;;5053466;28;20412;-72
2022/04/15 12:54:32;;;;;;;5.57;3.97;;;;;;;;;;5053565;28;20435;-72
2022/04/15 12:56:59;;;;;;;5.70;5.17;;;;;;;;;;5053423;28;20399;-73
2022/04/15 12:59:26;;;;;;;5.03;4.73;;;;;;;;;;5053431;28;20408;-77
2022/04/15 13:01:52;;;;;;;3.57;3.27;;;;;;;;;;5053192;28;20516;-76
2022/04/15 13:04:18;;;;;;;3.53;3.43;;;;;;;;;;5053340;28;20418;-78
2022/04/15 13:06:45;;;;;;;3.50;3.40;;;;;;;;;;5054192;28;20411;-77
2022/04/15 13:09:11;;;;;;;3.53;3.23;;;;;;;;;;5053471;28;20446;-77
2022/04/15 13:11:37;;;;;;;5.23;4.00;;;;;;;;;;5053429;28;20416;-76
2022/04/15 13:14:03;;;;;;;4.93;4.60;;;;;;;;;;5053417;28;20435;-78
2022/04/15 13:16:29;;;;;;;3.50;3.20;;;;;;;;;;5053412;28;20424;-78
2022/04/15 13:18:55;;;;;;;3.40;3.30;;;;;;;;;;5053595;28;20400;-76
2022/04/15 13:21:22;;;;;;;4.30;3.17;;;;;;;;;;5052960;28;20419;-75
2022/04/15 13:23:48;;;;;;;3.50;3.40;;;;;;;;;;5053051;28;20415;-75
2022/04/15 13:26:14;;;;;;;3.60;3.40;;;;;;;;;;5053112;28;20469;-77
2022/04/15 13:28:41;;;;;;;4.93;3.50;;;;;;;;;;5053176;28;20883;-78
2022/04/15 13:31:08;;;;;;;3.17;3.07;;;;;;;;;;5053169;28;20740;-77
2022/04/15 13:33:34;;;;;;;3.07;2.87;;;;;;;;;;5052989;28;20415;-76
2022/04/15 13:36:01;;;;;;;3.13;3.03;;;;;;;;;;5053047;28;20411;-76
2022/04/15 13:38:27;;;;;;;2.40;2.30;;;;;;;;;;5053249;28;20418;-77
2022/04/15 13:40:53;;;;;;;2.60;2.50;;;;;;;;;;5052859;28;20466;-75
2022/04/15 13:43:20;;;;;;;3.40;3.10;;;;;;;;;;5052909;28;20566;-75
2022/04/15 13:45:46;;;;;;;5.57;3.13;;;;;;;;;;5052849;28;20433;-77
2022/04/15 13:48:12;;;;;;;3.37;3.17;;;;;;;;;;5052872;28;20905;-77
2022/04/15 13:50:38;;;;;;;3.70;3.50;;;;;;;;;;5053124;28;20410;-76
2022/04/15 13:58:33;;;;;;;2.63;2.50;;;;;;;;;;5056907;28;20501;-75
2022/04/15 14:01:00;;;;;;;3.03;2.83;;;;;;;;;;5056730;28;20426;-79
2022/04/15 14:03:27;;;;;;;2.20;2.20;;;;;;;;;;5056577;28;20486;-76
2022/04/15 14:05:53;;;;;;;2.50;2.10;;;;;;;;;;5056500;28;20906;-76
2022/04/15 14:08:21;;;;;;;2.43;2.33;;;;;;;;;;5055235;28;20448;-77
2022/04/15 14:10:47;;;;;;;2.63;2.53;;;;;;;;;;5056281;28;20498;-79
2022/04/15 14:13:15;;;;;;;3.03;2.93;;;;;;;;;;5056236;28;20922;-78
2022/04/15 14:15:41;;;;;;;2.53;2.30;;;;;;;;;;5056507;28;20408;-79
2022/04/15 14:18:08;;;;;;;3.17;2.90;;;;;;;;;;5056530;28;20890;-78
2022/04/15 14:20:34;;;;;;;2.40;2.30;;;;;;;;;;5056459;28;20439;-80
2022/04/15 14:23:00;;;;;;;5.03;2.53;;;;;;;;;;5056160;28;20468;-80
2022/04/15 14:25:26;;;;;;;2.63;2.53;;;;;;;;;;5056192;28;20403;-81
2022/04/15 14:27:52;;;;;;;2.20;2.20;;;;;;;;;;5056245;28;20616;-80
2022/04/15 14:30:18;;;;;;;3.17;2.20;;;;;;;;;;5054930;28;20527;-79
2022/04/15 14:32:44;;;;;;;2.40;2.30;;;;;;;;;;5056179;28;20420;-77
2022/04/15 14:35:11;;;;;;;3.70;3.50;;;;;;;;;;5056067;28;20435;-76